createdAt,value
2023-04-10T00:01:01.946Z,99.90
2023-04-10T00:03:06.216Z,99.90
2023-04-10T00:05:12.070Z,99.90
2023-04-10T00:07:15.872Z,99.90
2023-04-10T00:09:24.518Z,99.90
2023-04-10T00:11:27.850Z,99.90
2023-04-10T00:13:31.789Z,99.90
2023-04-10T00:15:36.030Z,99.90
2023-04-10T00:17:39.767Z,99.90
2023-04-10T00:19:43.181Z,99.90
2023-04-10T00:21:48.933Z,99.90
2023-04-10T00:24:02.768Z,99.90
2023-04-10T00:26:06.658Z,99.90
2023-04-10T00:28:10.220Z,99.90
2023-04-10T00:30:13.720Z,99.90
2023-04-10T00:32:17.309Z,99.90
2023-04-10T00:34:20.911Z,99.90
2023-04-10T00:36:24.331Z,99.90
2023-04-10T00:38:29.165Z,99.90
2023-04-10T00:40:33.520Z,99.90
2023-04-10T00:42:54.341Z,99.90
2023-04-10T00:44:57.689Z,99.90
2023-04-10T00:47:01.259Z,99.90
2023-04-10T00:49:04.576Z,99.90
2023-04-10T00:51:08.162Z,99.90
2023-04-10T00:53:12.475Z,99.90
2023-04-10T00:55:17.175Z,99.90
2023-04-10T00:57:20.604Z,99.90
2023-04-10T00:59:53.419Z,99.90
2023-04-10T01:01:57.064Z,99.90
2023-04-10T01:04:00.651Z,99.90
2023-04-10T01:06:06.125Z,99.90
2023-04-10T01:08:13.665Z,99.90
2023-04-10T01:10:19.969Z,99.90
2023-04-10T01:15:44.744Z,99.90
2023-04-10T01:17:51.624Z,99.90
2023-04-10T01:20:03.285Z,99.90
2023-04-10T01:22:10.640Z,99.90
2023-04-10T01:24:52.164Z,99.90
2023-04-10T01:27:10.442Z,99.90
2023-04-10T01:29:16.225Z,99.90
2023-04-10T01:31:22.168Z,99.90
2023-04-10T01:33:28.460Z,99.90
2023-04-10T01:35:32.294Z,99.90
2023-04-10T01:37:51.098Z,99.90
2023-04-10T01:39:58.442Z,99.90
2023-04-10T01:42:02.585Z,99.90
2023-04-10T01:44:06.153Z,99.90
2023-04-10T01:46:11.320Z,99.90
2023-04-10T01:48:16.674Z,99.90
2023-04-10T01:50:20.372Z,99.90
2023-04-10T01:52:23.840Z,99.90
2023-04-10T01:54:28.004Z,99.90
2023-04-10T01:56:49.255Z,99.90
2023-04-10T01:58:53.733Z,99.90
2023-04-10T02:00:57.161Z,99.90
2023-04-10T02:03:02.141Z,99.90
2023-04-10T02:05:06.174Z,99.90
2023-04-10T02:07:12.355Z,99.90
2023-04-10T02:09:20.781Z,99.90
2023-04-10T02:11:30.153Z,99.90
2023-04-10T02:13:33.699Z,99.90
2023-04-10T02:15:37.235Z,99.90
2023-04-10T02:17:40.824Z,99.90
2023-04-10T02:19:45.713Z,99.90
2023-04-10T02:21:49.144Z,99.90
2023-04-10T02:23:52.998Z,99.90
2023-04-10T02:25:57.246Z,99.90
2023-04-10T02:28:04.744Z,99.90
2023-04-10T02:30:09.476Z,99.90
2023-04-10T02:33:03.397Z,99.90
2023-04-10T02:35:08.873Z,99.90
2023-04-10T02:37:12.494Z,99.90
2023-04-10T02:39:15.760Z,99.90
2023-04-10T02:41:19.302Z,99.90
2023-04-10T02:43:22.587Z,99.90
2023-04-10T02:45:26.250Z,99.90
2023-04-10T02:47:29.743Z,99.90
2023-04-10T02:49:33.680Z,99.90
2023-04-10T02:51:38.532Z,99.90
2023-04-10T02:54:04.208Z,99.90
2023-04-10T02:56:09.262Z,99.90
2023-04-10T02:58:14.531Z,99.90
2023-04-10T03:00:19.544Z,99.90
2023-04-10T03:02:23.137Z,99.90
2023-04-10T03:04:26.499Z,99.90
2023-04-10T03:06:37.249Z,99.90
2023-04-10T03:08:40.778Z,99.90
2023-04-10T03:10:44.856Z,99.90
2023-04-10T03:12:48.926Z,99.90
2023-04-10T03:14:52.599Z,99.90
2023-04-10T03:16:59.417Z,99.90
2023-04-10T03:19:02.961Z,99.90
2023-04-10T03:21:06.820Z,99.90
2023-04-10T03:23:12.378Z,99.90
2023-04-10T03:25:16.196Z,99.90
2023-04-10T03:27:19.590Z,99.90
2023-04-10T03:29:22.970Z,99.90
2023-04-10T03:31:26.411Z,99.90
2023-04-10T03:33:41.518Z,99.90
2023-04-10T03:35:44.999Z,99.90
2023-04-10T03:37:48.394Z,99.90
2023-04-10T03:39:53.456Z,99.90
2023-04-10T03:41:56.814Z,99.90
2023-04-10T03:44:02.378Z,99.90
2023-04-10T03:46:06.235Z,99.90
2023-04-10T03:48:09.807Z,99.90
2023-04-10T03:50:23.788Z,99.90
2023-04-10T03:52:28.323Z,99.90
2023-04-10T03:54:31.970Z,99.90
2023-04-10T03:56:36.735Z,99.90
2023-04-10T03:58:40.548Z,99.90
2023-04-10T04:00:44.190Z,99.90
2023-04-10T04:07:09.801Z,99.90
2023-04-10T04:09:13.358Z,99.90
2023-04-10T04:11:16.790Z,99.90
2023-04-10T04:13:41.499Z,99.90
2023-04-10T04:15:45.088Z,99.90
2023-04-10T04:17:49.125Z,99.90
2023-04-10T04:19:52.670Z,99.90
2023-04-10T04:21:56.561Z,99.90
2023-04-10T04:24:00.557Z,99.90
2023-04-10T04:26:04.288Z,99.90
2023-04-10T04:28:07.774Z,99.90
2023-04-10T04:30:13.813Z,99.90
2023-04-10T04:32:18.296Z,99.90
2023-04-10T04:34:22.179Z,99.90
2023-04-10T04:36:26.037Z,99.90
2023-04-10T04:38:29.675Z,99.90
2023-04-10T04:40:33.500Z,99.90
2023-04-10T04:42:37.465Z,99.90
2023-04-10T04:44:41.001Z,99.90
2023-04-10T04:46:47.127Z,99.90
2023-04-10T04:48:50.947Z,99.90
2023-04-10T04:51:15.633Z,99.90
2023-04-10T04:53:19.215Z,99.90
2023-04-10T04:55:22.733Z,99.90
2023-04-10T04:57:26.182Z,99.90
2023-04-10T04:59:29.543Z,99.90
2023-04-10T05:01:42.667Z,99.90
2023-04-10T05:03:47.967Z,99.90
2023-04-10T05:05:51.585Z,99.90
2023-04-10T05:07:55.194Z,99.90
2023-04-10T05:09:59.877Z,99.90
2023-04-10T05:12:03.964Z,99.90
2023-04-10T05:14:35.352Z,99.90
2023-04-10T05:16:39.135Z,99.90
2023-04-10T05:18:43.142Z,99.90
2023-04-10T05:20:48.107Z,99.90
2023-04-10T05:22:53.368Z,99.90
2023-04-10T05:24:57.098Z,99.90
2023-04-10T05:34:50.502Z,99.90
2023-04-10T05:36:58.759Z,99.90
2023-04-10T05:39:02.772Z,99.90
2023-04-10T05:41:06.511Z,99.90
2023-04-10T05:43:42.198Z,99.90
2023-04-10T05:45:46.340Z,99.90
2023-04-10T05:47:50.404Z,99.90
2023-04-10T05:49:54.289Z,99.90
2023-04-10T05:51:59.338Z,99.90
2023-04-10T05:54:03.017Z,99.90
2023-04-10T05:56:07.117Z,99.90
2023-04-10T05:58:10.987Z,99.90
2023-04-10T06:00:16.411Z,99.90
2023-04-10T06:02:22.071Z,99.90
2023-04-10T06:04:26.310Z,99.90
2023-04-10T06:06:30.137Z,99.90
2023-04-10T06:08:35.469Z,99.90
2023-04-10T06:10:39.361Z,99.90
2023-04-10T06:12:49.109Z,99.90
2023-04-10T06:22:41.052Z,99.90
2023-04-10T06:24:46.310Z,99.90
2023-04-10T06:26:50.054Z,99.90
2023-04-10T06:28:53.977Z,99.90
2023-04-10T06:31:28.783Z,99.90
2023-04-10T06:33:32.714Z,99.90
2023-04-10T06:35:36.775Z,99.90
2023-04-10T06:37:40.266Z,99.90
2023-04-10T06:39:45.311Z,99.90
2023-04-10T06:46:09.698Z,99.90
2023-04-10T06:48:13.510Z,99.90
2023-04-10T06:50:19.929Z,99.90
2023-04-10T06:52:24.655Z,99.90
2023-04-10T06:54:28.273Z,99.90
2023-04-10T06:56:34.204Z,99.90
2023-04-10T06:58:38.173Z,99.90
2023-04-10T07:00:42.582Z,99.90
2023-04-10T07:02:46.246Z,99.90
2023-04-10T07:04:50.343Z,99.90
2023-04-10T07:10:56.019Z,99.90
2023-04-10T07:13:07.554Z,99.90
2023-04-10T07:15:12.624Z,99.90
2023-04-10T07:17:16.166Z,99.90
2023-04-10T07:19:25.931Z,99.90
2023-04-10T07:21:29.898Z,99.90
2023-04-10T07:23:33.852Z,99.90
2023-04-10T07:25:38.041Z,99.90
2023-04-10T07:27:41.790Z,99.90
2023-04-10T07:29:46.927Z,99.90
2023-04-10T07:31:50.803Z,99.90
2023-04-10T07:33:56.771Z,99.90
2023-04-10T07:36:00.505Z,99.90
2023-04-10T07:38:04.761Z,99.90
2023-04-10T07:40:09.935Z,99.90
2023-04-10T07:42:14.137Z,99.90
2023-04-10T07:44:17.788Z,99.90
2023-04-10T07:46:23.017Z,99.90
2023-04-10T07:48:26.701Z,99.90
2023-04-10T07:50:30.690Z,99.90
2023-04-10T07:52:33.744Z,99.90
2023-04-10T07:54:38.758Z,99.90
2023-04-10T07:56:54.244Z,99.90
2023-04-10T07:58:58.525Z,99.90
2023-04-10T08:01:02.140Z,99.90
2023-04-10T08:03:07.848Z,99.90
2023-04-10T08:05:11.855Z,99.90
2023-04-10T08:07:15.598Z,99.90
2023-04-10T08:09:19.213Z,99.90
2023-04-10T08:11:27.682Z,99.90
2023-04-10T08:13:31.380Z,99.90
2023-04-10T08:15:41.683Z,99.90
2023-04-10T08:17:45.603Z,99.90
2023-04-10T08:19:51.890Z,99.90
2023-04-10T08:21:55.322Z,99.90
2023-04-10T08:24:00.897Z,99.90
2023-04-10T08:26:05.586Z,99.90
2023-04-10T08:28:09.576Z,99.90
2023-04-10T08:30:13.726Z,99.90
2023-04-10T08:32:17.693Z,99.90
2023-04-10T08:34:23.975Z,99.90
2023-04-10T08:36:29.386Z,99.90
2023-04-10T08:38:33.222Z,99.90
2023-04-10T08:40:39.124Z,99.90
2023-04-10T08:42:42.814Z,99.90
2023-04-10T08:44:46.688Z,99.90
2023-04-10T08:46:50.352Z,99.90
2023-04-10T08:48:56.559Z,99.90
2023-04-10T08:51:00.527Z,99.90
2023-04-10T08:53:07.253Z,99.90
2023-04-10T08:55:11.114Z,99.90
2023-04-10T08:57:18.749Z,99.90
2023-04-10T08:59:22.346Z,99.90
2023-04-10T09:01:25.819Z,99.90
2023-04-10T09:03:29.627Z,99.80
2023-04-10T09:05:33.461Z,98.20
2023-04-10T09:07:37.113Z,98.10
2023-04-10T09:09:43.097Z,97.90
2023-04-10T09:12:02.743Z,97.00
2023-04-10T09:14:08.552Z,96.50
2023-04-10T09:16:12.662Z,96.10
2023-04-10T09:18:16.425Z,96.00
2023-04-10T09:20:23.158Z,95.30
2023-04-10T09:22:31.412Z,95.20
2023-04-10T09:24:38.027Z,93.40
2023-04-10T09:26:42.990Z,92.80
2023-04-10T09:28:57.993Z,92.10
2023-04-10T09:31:01.870Z,91.80
2023-04-10T09:33:05.659Z,91.70
2023-04-10T09:35:11.577Z,91.30
2023-04-10T09:37:18.276Z,90.50
2023-04-10T09:39:22.021Z,90.20
2023-04-10T09:41:25.852Z,90.00
2023-04-10T09:43:31.115Z,87.80
2023-04-10T09:45:47.951Z,88.20
2023-04-10T09:48:04.699Z,89.50
2023-04-10T09:50:09.934Z,89.10
2023-04-10T09:52:20.036Z,89.20
2023-04-10T09:54:36.645Z,89.70
2023-04-10T09:56:40.633Z,88.70
2023-04-10T09:58:45.590Z,87.60
2023-04-10T10:00:49.561Z,86.20
2023-04-10T10:02:54.086Z,86.60
2023-04-10T10:04:58.021Z,85.90
2023-04-10T10:07:01.787Z,86.60
2023-04-10T10:09:05.981Z,86.40
2023-04-10T10:11:11.596Z,85.40
2023-04-10T10:13:18.239Z,85.40
2023-04-10T10:15:26.549Z,84.60
2023-04-10T10:17:33.880Z,85.40
2023-04-10T10:19:40.680Z,85.70
2023-04-10T10:21:45.746Z,83.60
2023-04-10T10:23:53.985Z,82.50
2023-04-10T10:25:57.772Z,81.20
2023-04-10T10:28:02.749Z,80.30
2023-04-10T10:30:16.417Z,78.90
2023-04-10T10:32:32.544Z,77.80
2023-04-10T10:34:36.175Z,78.00
2023-04-10T10:36:41.973Z,76.40
2023-04-10T10:38:49.666Z,75.90
2023-04-10T10:40:56.595Z,74.80
2023-04-10T10:43:07.089Z,75.00
2023-04-10T10:45:12.835Z,74.60
2023-04-10T10:47:17.638Z,74.00
2023-04-10T10:49:22.560Z,73.40
2023-04-10T10:51:26.200Z,72.40
2023-04-10T10:53:34.009Z,71.60
2023-04-10T10:55:38.035Z,70.60
2023-04-10T10:57:47.876Z,70.00
2023-04-10T11:00:00.413Z,69.00
2023-04-10T11:02:16.943Z,68.80
2023-04-10T11:04:47.889Z,69.20
2023-04-10T11:06:52.547Z,68.00
2023-04-10T11:08:56.129Z,66.80
2023-04-10T11:11:03.116Z,66.30
2023-04-10T11:13:19.225Z,65.00
2023-04-10T11:15:24.690Z,65.40
2023-04-10T11:17:51.676Z,65.60
2023-04-10T11:20:04.299Z,64.60
2023-04-10T11:22:09.352Z,61.90
2023-04-10T11:24:13.246Z,61.50
2023-04-10T11:26:17.082Z,61.60
2023-04-10T11:28:36.793Z,60.00
2023-04-10T11:30:41.237Z,60.20
2023-04-10T11:32:45.464Z,60.40
2023-04-10T11:34:49.336Z,60.10
2023-04-10T11:36:54.440Z,60.10
2023-04-10T11:38:58.874Z,59.10
2023-04-10T11:41:04.622Z,58.90
2023-04-10T11:43:15.478Z,57.30
2023-04-10T11:45:29.063Z,54.30
2023-04-10T11:47:32.805Z,54.00
2023-04-10T11:49:37.323Z,54.10
2023-04-10T11:51:41.309Z,53.50
2023-04-10T11:53:46.385Z,53.20
2023-04-10T11:55:50.109Z,54.30
2023-04-10T11:57:53.797Z,54.60
2023-04-10T11:59:57.467Z,54.60
2023-04-10T12:02:08.118Z,54.20
2023-04-10T12:04:17.977Z,53.80
2023-04-10T12:06:21.534Z,53.10
2023-04-10T12:08:33.422Z,50.70
2023-04-10T12:10:48.606Z,48.00
2023-04-10T12:12:52.524Z,48.90
2023-04-10T12:14:56.118Z,49.90
2023-04-10T12:16:59.692Z,49.60
2023-04-10T12:19:03.554Z,49.20
2023-04-10T12:21:08.656Z,48.80
2023-04-10T12:23:12.481Z,48.30
2023-04-10T12:25:17.445Z,48.60
2023-04-10T12:27:22.979Z,48.70
2023-04-10T12:29:28.926Z,49.50
2023-04-10T12:31:33.696Z,48.90
2023-04-10T12:33:37.457Z,49.10
2023-04-10T12:35:41.472Z,48.60
2023-04-10T12:37:52.588Z,48.60
2023-04-10T12:40:06.815Z,48.20
2023-04-10T12:42:14.382Z,47.40
2023-04-10T12:44:20.730Z,47.40
2023-04-10T12:46:26.200Z,48.10
2023-04-10T12:48:29.685Z,48.10
2023-04-10T12:50:33.562Z,47.60
2023-04-10T12:52:37.247Z,46.90
2023-04-10T12:54:40.708Z,47.30
2023-04-10T12:56:44.434Z,48.20
2023-04-10T12:58:48.175Z,46.50
2023-04-10T13:00:53.093Z,47.20
2023-04-10T13:02:56.853Z,46.40
2023-04-10T13:05:02.026Z,46.50
2023-04-10T13:07:05.412Z,46.60
2023-04-10T13:09:08.997Z,46.30
2023-04-10T13:11:13.297Z,46.40
2023-04-10T13:13:16.757Z,46.40
2023-04-10T13:15:20.200Z,44.90
2023-04-10T13:17:26.006Z,44.30
2023-04-10T13:19:29.476Z,44.80
2023-04-10T13:21:33.114Z,45.30
2023-04-10T13:23:36.782Z,45.50
2023-04-10T13:25:41.334Z,47.00
2023-04-10T13:27:44.778Z,47.30
2023-04-10T13:29:48.328Z,48.30
2023-04-10T13:31:51.946Z,47.80
2023-04-10T13:33:56.822Z,48.80
2023-04-10T13:36:00.356Z,49.40
2023-04-10T13:38:04.080Z,49.70
2023-04-10T13:40:09.598Z,51.70
2023-04-10T13:42:13.271Z,49.90
2023-04-10T13:44:16.721Z,50.80
2023-04-10T13:46:20.278Z,51.60
2023-04-10T13:48:29.963Z,51.40
2023-04-10T13:50:42.829Z,51.40
2023-04-10T13:52:46.413Z,51.30
2023-04-10T13:54:50.150Z,50.90
2023-04-10T13:56:54.710Z,51.40
2023-04-10T13:58:58.410Z,52.10
2023-04-10T14:01:02.751Z,53.40
2023-04-10T14:03:10.136Z,53.30
2023-04-10T14:05:13.813Z,53.20
2023-04-10T14:07:19.332Z,50.70
2023-04-10T14:09:22.740Z,50.90
2023-04-10T14:11:26.401Z,52.10
2023-04-10T14:13:31.382Z,51.80
2023-04-10T14:15:35.402Z,50.90
2023-04-10T14:17:38.860Z,50.10
2023-04-10T14:19:43.403Z,48.60
2023-04-10T14:21:47.095Z,48.70
2023-04-10T14:23:52.227Z,47.70
2023-04-10T14:25:56.080Z,47.90
2023-04-10T14:28:00.162Z,48.30
2023-04-10T14:30:04.046Z,49.50
2023-04-10T14:32:08.185Z,50.00
2023-04-10T14:34:11.806Z,49.60
2023-04-10T14:36:15.864Z,49.20
2023-04-10T14:38:19.527Z,48.90
2023-04-10T14:40:27.668Z,49.30
2023-04-10T14:42:31.396Z,48.50
2023-04-10T14:44:35.480Z,48.50
2023-04-10T14:46:39.037Z,48.90
2023-04-10T14:48:42.519Z,48.90
2023-04-10T14:50:50.227Z,48.80
2023-04-10T14:52:54.793Z,46.40
2023-04-10T14:54:58.255Z,45.80
2023-04-10T14:57:05.279Z,44.70
2023-04-10T14:59:08.880Z,45.20
2023-04-10T15:01:13.598Z,45.40
2023-04-10T15:03:17.188Z,46.40
2023-04-10T15:05:20.691Z,47.40
2023-04-10T15:07:24.550Z,44.80
2023-04-10T15:09:28.291Z,45.70
2023-04-10T15:11:32.068Z,46.00
2023-04-10T15:13:37.956Z,44.00
2023-04-10T15:15:42.434Z,44.30
2023-04-10T15:17:46.593Z,45.60
2023-04-10T15:19:50.429Z,45.80
2023-04-10T15:21:54.110Z,45.70
2023-04-10T15:23:57.770Z,45.10
2023-04-10T15:26:01.344Z,45.30
2023-04-10T15:28:05.529Z,45.60
2023-04-10T15:30:11.846Z,45.80
2023-04-10T15:32:16.796Z,45.90
2023-04-10T15:34:21.082Z,46.70
2023-04-10T15:36:24.619Z,46.60
2023-04-10T15:38:28.967Z,46.50
2023-04-10T15:40:32.976Z,46.20
2023-04-10T15:42:36.806Z,46.80
2023-04-10T15:44:40.546Z,47.00
2023-04-10T15:46:47.243Z,47.20
2023-04-10T15:48:51.600Z,47.00
2023-04-10T15:50:55.380Z,47.30
2023-04-10T15:52:58.929Z,46.50
2023-04-10T15:55:02.486Z,46.40
2023-04-10T15:57:06.323Z,46.70
2023-04-10T15:59:10.048Z,46.90
2023-04-10T16:01:13.486Z,46.30
2023-04-10T16:03:18.696Z,46.40
2023-04-10T16:05:22.816Z,45.10
2023-04-10T16:07:26.973Z,44.50
2023-04-10T16:09:30.603Z,44.80
2023-04-10T16:11:34.232Z,44.90
2023-04-10T16:13:40.334Z,45.60
2023-04-10T16:15:47.319Z,45.70
2023-04-10T16:17:51.793Z,46.00
2023-04-10T16:19:56.993Z,46.10
2023-04-10T16:22:00.651Z,46.60
2023-04-10T16:24:05.046Z,47.10
2023-04-10T16:26:08.751Z,47.70
2023-04-10T16:28:12.589Z,48.30
2023-04-10T16:30:16.944Z,48.00
2023-04-10T16:32:21.149Z,48.40
2023-04-10T16:34:24.848Z,48.30
2023-04-10T16:36:30.495Z,48.50
2023-04-10T16:38:35.066Z,49.00
2023-04-10T16:40:39.993Z,49.40
2023-04-10T16:42:43.823Z,49.40
2023-04-10T16:44:47.491Z,49.20
2023-04-10T16:46:51.189Z,49.30
2023-04-10T16:48:55.385Z,49.90
2023-04-10T16:51:05.918Z,50.00
2023-04-10T16:53:11.110Z,50.00
2023-04-10T16:55:14.843Z,50.90
2023-04-10T16:57:18.675Z,51.90
2023-04-10T16:59:22.312Z,53.10
2023-04-10T17:01:26.468Z,54.10
2023-04-10T17:03:30.229Z,54.80
2023-04-10T17:05:36.030Z,55.50
2023-04-10T17:07:39.883Z,56.00
2023-04-10T17:09:45.012Z,56.70
2023-04-10T17:11:48.736Z,56.90
2023-04-10T17:13:52.482Z,57.30
2023-04-10T17:15:55.997Z,57.50
2023-04-10T17:17:59.661Z,57.60
2023-04-10T17:20:03.878Z,58.10
2023-04-10T17:22:15.652Z,57.30
2023-04-10T17:24:19.658Z,58.10
2023-04-10T17:26:24.768Z,58.60
2023-04-10T17:28:28.767Z,58.60
2023-04-10T17:30:32.821Z,58.80
2023-04-10T17:32:36.464Z,59.00
2023-04-10T17:34:39.948Z,59.60
2023-04-10T17:36:43.611Z,59.70
2023-04-10T17:38:47.207Z,60.00
2023-04-10T17:40:50.718Z,60.00
2023-04-10T17:42:55.932Z,59.90
2023-04-10T17:44:59.585Z,60.30
2023-04-10T17:47:03.152Z,60.60
2023-04-10T17:49:06.881Z,60.50
2023-04-10T17:51:10.936Z,60.70
2023-04-10T17:53:18.814Z,60.80
2023-04-10T17:55:22.300Z,60.90
2023-04-10T17:57:25.708Z,61.10
2023-04-10T17:59:32.870Z,60.90
2023-04-10T18:01:36.663Z,60.80
2023-04-10T18:03:40.787Z,60.70
2023-04-10T18:05:45.461Z,60.80
2023-04-10T18:07:49.201Z,61.20
2023-04-10T18:09:52.983Z,61.00
2023-04-10T18:11:56.197Z,61.20
2023-04-10T18:13:59.756Z,61.20
2023-04-10T18:16:04.942Z,61.40
2023-04-10T18:18:08.582Z,61.60
2023-04-10T18:20:12.782Z,61.80
2023-04-10T18:22:16.973Z,62.10
2023-04-10T18:24:20.417Z,62.30
2023-04-10T18:26:25.634Z,62.50
2023-04-10T18:28:30.229Z,62.70
2023-04-10T18:30:34.211Z,63.00
2023-04-10T18:32:39.114Z,63.30
2023-04-10T18:34:42.501Z,63.60
2023-04-10T18:36:45.827Z,64.00
2023-04-10T18:38:49.318Z,64.20
2023-04-10T18:40:55.687Z,64.50
2023-04-10T18:42:59.779Z,64.70
2023-04-10T18:45:13.117Z,64.80
2023-04-10T18:47:17.805Z,65.00
2023-04-10T18:49:23.194Z,65.40
2023-04-10T18:51:26.699Z,65.60
2023-04-10T18:53:31.202Z,66.00
2023-04-10T18:55:35.012Z,66.00
2023-04-10T18:57:39.193Z,66.60
2023-04-10T18:59:42.707Z,66.90
2023-04-10T19:01:46.295Z,67.50
2023-04-10T19:03:52.320Z,67.80
2023-04-10T19:05:57.766Z,68.40
2023-04-10T19:08:04.765Z,68.60
2023-04-10T19:10:09.688Z,68.80
2023-04-10T19:12:13.222Z,69.40
2023-04-10T19:14:16.835Z,69.90
2023-04-10T19:16:20.726Z,70.30
2023-04-10T19:18:24.343Z,70.60
2023-04-10T19:20:50.945Z,70.80
2023-04-10T19:22:53.172Z,71.20
2023-04-10T19:24:57.147Z,71.50
2023-04-10T19:27:00.950Z,71.80
2023-04-10T19:29:04.625Z,72.10
2023-04-10T19:31:14.299Z,72.20
2023-04-10T19:33:18.371Z,72.40
2023-04-10T19:35:22.823Z,72.80
2023-04-10T19:37:26.471Z,73.30
2023-04-10T19:39:31.376Z,73.60
2023-04-10T19:41:35.066Z,74.10
2023-04-10T19:43:38.448Z,74.60
2023-04-10T19:45:41.882Z,74.70
2023-04-10T19:47:45.402Z,75.10
2023-04-10T19:49:49.743Z,75.30
2023-04-10T19:51:53.314Z,75.80
2023-04-10T19:53:57.748Z,76.40
2023-04-10T19:56:03.421Z,77.10
2023-04-10T19:58:08.700Z,78.10
2023-04-10T20:00:15.221Z,81.20
2023-04-10T20:02:19.548Z,82.10
2023-04-10T20:04:23.217Z,84.20
2023-04-10T20:06:27.210Z,86.10
2023-04-10T20:08:30.898Z,89.40
2023-04-10T20:10:35.660Z,90.70
2023-04-10T20:12:40.643Z,93.00
2023-04-10T20:14:45.343Z,95.00
2023-04-10T20:16:49.018Z,97.00
2023-04-10T20:18:54.172Z,99.20
2023-04-10T20:20:57.896Z,99.90
2023-04-10T20:23:01.548Z,99.90
2023-04-10T20:25:05.323Z,99.90
2023-04-10T20:27:09.643Z,99.90
2023-04-10T20:29:14.713Z,99.90
2023-04-10T20:31:18.142Z,99.90
2023-04-10T20:33:22.722Z,99.90
2023-04-10T20:35:27.424Z,99.90
2023-04-10T20:37:30.857Z,99.90
2023-04-10T20:39:34.427Z,99.90
2023-04-10T20:41:37.844Z,99.90
2023-04-10T20:43:44.678Z,99.90
2023-04-10T20:45:52.943Z,99.90
2023-04-10T20:47:58.009Z,99.90
2023-04-10T20:50:01.562Z,99.90
2023-04-10T20:52:05.575Z,99.90
2023-04-10T20:54:09.129Z,99.90
2023-04-10T20:56:12.614Z,99.90
2023-04-10T20:58:16.212Z,99.90
2023-04-10T21:00:20.245Z,99.90
2023-04-10T21:02:25.398Z,99.90
2023-04-10T21:04:28.967Z,99.90
2023-04-10T21:06:34.338Z,99.90
2023-04-10T21:08:37.989Z,99.90
2023-04-10T21:10:44.983Z,99.90
2023-04-10T21:12:48.216Z,99.90
2023-04-10T21:14:51.709Z,99.90
2023-04-10T21:16:55.191Z,99.90
2023-04-10T21:19:10.538Z,99.90
2023-04-10T21:21:14.189Z,99.90
2023-04-10T21:23:17.721Z,99.90
2023-04-10T21:25:21.211Z,99.90
2023-04-10T21:27:25.172Z,99.90
2023-04-10T21:29:29.148Z,99.90
2023-04-10T21:31:33.100Z,99.90
2023-04-10T21:33:36.892Z,99.90
2023-04-10T21:35:45.562Z,99.90
2023-04-10T21:37:51.367Z,99.90
2023-04-10T21:39:55.561Z,99.90
2023-04-10T21:41:59.112Z,99.90
2023-04-10T21:44:02.858Z,99.90
2023-04-10T21:46:07.408Z,99.90
2023-04-10T21:48:11.538Z,99.90
2023-04-10T21:50:17.706Z,99.90
2023-04-10T21:52:23.614Z,99.90
2023-04-10T21:54:27.708Z,99.90
2023-04-10T21:56:49.491Z,99.90
2023-04-10T21:59:13.206Z,99.90
2023-04-10T22:01:44.323Z,99.90
2023-04-10T22:03:55.237Z,99.90
2023-04-10T22:06:03.169Z,99.90
2023-04-10T22:08:09.285Z,99.90
2023-04-10T22:10:12.884Z,99.90
2023-04-10T22:12:16.562Z,99.90
2023-04-10T22:15:10.622Z,99.90
2023-04-10T22:17:13.937Z,99.90
2023-04-10T22:19:17.480Z,99.90
2023-04-10T22:21:21.201Z,99.90
2023-04-10T22:23:26.438Z,99.90
2023-04-10T22:25:29.966Z,99.90
2023-04-10T22:27:34.416Z,99.90
2023-04-10T22:29:37.956Z,99.90
2023-04-10T22:32:16.587Z,99.90
2023-04-10T22:34:21.160Z,99.90
2023-04-10T22:36:24.643Z,99.90
2023-04-10T22:38:29.608Z,99.90
2023-04-10T22:40:33.252Z,99.90
2023-04-10T22:42:36.653Z,99.90
2023-04-10T22:44:40.404Z,99.90
2023-04-10T22:46:43.870Z,99.90
2023-04-10T22:48:47.380Z,99.90
2023-04-10T22:50:57.311Z,99.90
2023-04-10T22:53:00.859Z,99.90
2023-04-10T22:55:16.476Z,99.90
2023-04-10T22:57:23.281Z,99.90
2023-04-10T22:59:26.626Z,99.90
2023-04-10T23:01:30.197Z,99.90
2023-04-10T23:03:33.939Z,99.90
2023-04-10T23:07:47.733Z,99.90
2023-04-10T23:09:51.266Z,99.90
2023-04-10T23:11:56.638Z,99.90
2023-04-10T23:14:00.043Z,99.90
2023-04-10T23:16:17.649Z,99.90
2023-04-10T23:18:20.974Z,99.90
2023-04-10T23:20:24.506Z,99.90
2023-04-10T23:22:28.807Z,99.90
2023-04-10T23:24:32.205Z,99.90
2023-04-10T23:26:35.731Z,99.90
2023-04-10T23:28:40.708Z,99.90
2023-04-10T23:30:44.136Z,99.90
2023-04-10T23:33:08.915Z,99.90
2023-04-10T23:35:12.355Z,99.90
2023-04-10T23:37:15.751Z,99.90
2023-04-10T23:39:20.416Z,99.90
2023-04-10T23:41:23.750Z,99.90
2023-04-10T23:43:27.204Z,99.90
